createdAt,value
2019-01-10T00:02:03.893Z,53.50
2019-01-10T00:04:34.373Z,55.77
2019-01-10T00:07:06.699Z,54.20
2019-01-10T00:09:38.368Z,56.50
2019-01-10T00:12:09.487Z,56.67
2019-01-10T00:14:40.334Z,53.67
2019-01-10T00:17:12.447Z,51.80
2019-01-10T00:19:43.296Z,55.50
2019-01-10T00:22:14.191Z,55.60
2019-01-10T00:24:46.009Z,54.07
2019-01-10T00:27:17.253Z,56.47
2019-01-10T00:29:47.977Z,51.90
2019-01-10T00:32:19.968Z,54.10
2019-01-10T00:34:52.238Z,49.50
2019-01-10T00:37:23.327Z,52.03
2019-01-10T00:39:53.811Z,55.30
2019-01-10T00:42:25.013Z,52.60
2019-01-10T00:44:55.530Z,55.80
2019-01-10T00:47:25.893Z,55.43
2019-01-10T00:49:57.291Z,55.93
2019-01-10T00:52:29.011Z,50.80
2019-01-10T00:54:59.660Z,56.13
2019-01-10T00:57:30.376Z,54.43
2019-01-10T01:00:01.051Z,54.30
2019-01-10T01:02:31.463Z,53.67
2019-01-10T01:05:02.154Z,54.73
2019-01-10T01:07:32.608Z,55.07
2019-01-10T01:10:03.041Z,55.10
2019-01-10T01:12:33.400Z,51.07
2019-01-10T01:15:04.079Z,52.63
2019-01-10T01:17:34.529Z,49.23
2019-01-10T01:20:07.172Z,54.90
2019-01-10T01:22:37.809Z,54.40
2019-01-10T01:25:09.620Z,54.03
2019-01-10T01:27:40.695Z,53.40
2019-01-10T01:30:15.392Z,55.53
2019-01-10T01:32:46.205Z,56.90
2019-01-10T01:35:17.918Z,51.90
2019-01-10T01:37:48.952Z,53.90
2019-01-10T01:40:21.748Z,51.40
2019-01-10T01:42:52.843Z,54.07
2019-01-10T01:45:23.424Z,55.13
2019-01-10T01:47:53.811Z,54.27
2019-01-10T01:50:25.595Z,55.80
2019-01-10T01:52:56.455Z,55.47
2019-01-10T01:55:27.164Z,53.27
2019-01-10T01:57:57.888Z,51.63
2019-01-10T02:00:28.870Z,49.97
2019-01-10T02:02:59.743Z,49.77
2019-01-10T02:05:30.591Z,50.33
2019-01-10T02:08:01.448Z,48.40
2019-01-10T02:10:32.468Z,49.80
2019-01-10T02:13:03.288Z,50.33
2019-01-10T02:15:34.018Z,51.70
2019-01-10T02:18:04.707Z,49.30
2019-01-10T02:20:37.174Z,47.40
2019-01-10T02:23:07.727Z,52.63
2019-01-10T02:25:41.252Z,49.53
2019-01-10T02:28:11.816Z,47.90
2019-01-10T02:30:42.616Z,51.47
2019-01-10T02:33:13.785Z,49.27
2019-01-10T02:35:44.527Z,52.00
2019-01-10T02:38:15.571Z,53.43
2019-01-10T02:40:46.470Z,49.57
2019-01-10T02:43:26.309Z,50.90
2019-01-10T02:45:50.628Z,49.43
2019-01-10T02:48:20.890Z,52.37
2019-01-10T02:50:51.715Z,47.40
2019-01-10T02:53:22.374Z,50.23
2019-01-10T02:55:52.895Z,52.17
2019-01-10T02:58:23.523Z,49.40
2019-01-10T03:00:54.235Z,49.80
2019-01-10T03:03:24.926Z,53.13
2019-01-10T03:05:55.330Z,48.80
2019-01-10T03:08:25.767Z,47.00
2019-01-10T03:10:56.331Z,48.07
2019-01-10T03:13:36.276Z,47.33
2019-01-10T03:15:59.435Z,48.90
2019-01-10T03:18:30.176Z,47.40
2019-01-10T03:21:00.695Z,47.47
2019-01-10T03:23:31.296Z,48.47
2019-01-10T03:26:02.322Z,48.90
2019-01-10T03:28:33.372Z,47.60
2019-01-10T03:31:04.238Z,44.73
2019-01-10T03:33:34.943Z,49.80
2019-01-10T03:36:06.667Z,50.20
2019-01-10T03:38:37.095Z,52.63
2019-01-10T03:41:07.935Z,52.47
2019-01-10T03:43:47.043Z,51.97
2019-01-10T03:46:11.333Z,51.70
2019-01-10T03:48:42.193Z,54.67
2019-01-10T03:51:12.742Z,51.97
2019-01-10T03:53:43.111Z,53.03
2019-01-10T03:56:13.842Z,55.47
2019-01-10T03:58:44.607Z,55.80
2019-01-10T04:01:15.772Z,54.07
2019-01-10T04:03:46.598Z,54.67
2019-01-10T04:06:17.412Z,47.97
2019-01-10T04:08:48.803Z,53.77
2019-01-10T04:11:19.762Z,53.10
2019-01-10T04:13:57.261Z,52.63
2019-01-10T04:16:22.790Z,50.60
2019-01-10T04:18:53.773Z,51.73
2019-01-10T04:21:25.160Z,49.23
2019-01-10T04:23:55.915Z,51.50
2019-01-10T04:26:26.933Z,54.63
2019-01-10T04:28:57.697Z,56.00
2019-01-10T04:31:28.326Z,54.30
2019-01-10T04:33:59.267Z,51.20
2019-01-10T04:36:30.319Z,50.27
2019-01-10T04:39:01.097Z,52.97
2019-01-10T04:41:32.052Z,50.23
2019-01-10T04:44:07.291Z,49.57
2019-01-10T04:46:34.997Z,52.73
2019-01-10T04:49:06.056Z,47.60
2019-01-10T04:51:36.804Z,49.77
2019-01-10T04:54:07.498Z,50.60
2019-01-10T04:56:38.304Z,46.97
2019-01-10T04:59:11.944Z,49.83
2019-01-10T05:01:42.297Z,56.00
2019-01-10T05:04:13.030Z,56.87
2019-01-10T05:06:46.277Z,54.07
2019-01-10T05:09:17.008Z,49.37
2019-01-10T05:11:47.715Z,45.33
2019-01-10T05:14:19.661Z,49.87
2019-01-10T05:16:50.696Z,45.77
2019-01-10T05:19:22.222Z,48.47
2019-01-10T05:21:53.103Z,49.63
2019-01-10T05:24:23.742Z,49.87
2019-01-10T05:26:54.099Z,47.53
2019-01-10T05:29:25.342Z,49.40
2019-01-10T05:31:55.726Z,48.27
2019-01-10T05:34:26.757Z,48.13
2019-01-10T05:36:57.472Z,49.30
2019-01-10T05:39:28.196Z,45.40
2019-01-10T05:41:58.802Z,46.37
2019-01-10T05:44:30.531Z,48.60
2019-01-10T05:47:02.185Z,46.93
2019-01-10T05:49:35.514Z,46.67
2019-01-10T05:52:06.220Z,47.50
2019-01-10T05:54:37.479Z,46.53
2019-01-10T05:57:07.971Z,47.57
2019-01-10T05:59:39.127Z,46.50
2019-01-10T06:02:09.454Z,44.97
2019-01-10T06:04:39.983Z,45.80
2019-01-10T06:07:10.863Z,46.53
2019-01-10T06:09:41.899Z,46.67
2019-01-10T06:12:12.187Z,45.37
2019-01-10T06:14:43.029Z,45.10
2019-01-10T06:17:14.038Z,46.10
2019-01-10T06:19:44.862Z,45.33
2019-01-10T06:22:15.192Z,44.50
2019-01-10T06:24:45.721Z,43.40
2019-01-10T06:27:16.364Z,44.47
2019-01-10T06:29:46.974Z,44.40
2019-01-10T06:32:17.529Z,45.10
2019-01-10T06:34:48.438Z,44.50
2019-01-10T06:37:19.124Z,44.83
2019-01-10T06:39:49.576Z,49.60
2019-01-10T06:42:20.296Z,46.17
2019-01-10T06:44:51.996Z,44.27
2019-01-10T06:47:23.066Z,45.70
2019-01-10T06:49:54.306Z,44.00
2019-01-10T06:52:24.814Z,44.37
2019-01-10T06:54:56.710Z,49.40
2019-01-10T06:57:27.937Z,43.53
2019-01-10T07:00:00.165Z,43.10
2019-01-10T07:02:31.748Z,44.70
2019-01-10T07:05:02.539Z,41.07
2019-01-10T07:07:32.927Z,41.10
2019-01-10T07:10:03.963Z,41.90
2019-01-10T07:12:34.576Z,41.80
2019-01-10T07:15:05.410Z,43.20
2019-01-10T07:17:36.045Z,42.03
2019-01-10T07:20:07.426Z,35.90
2019-01-10T07:22:43.606Z,40.27
2019-01-10T07:25:14.342Z,37.77
2019-01-10T07:27:44.761Z,38.70
2019-01-10T07:30:18.729Z,39.70
2019-01-10T07:32:49.497Z,42.60
2019-01-10T07:35:20.451Z,39.47
2019-01-10T07:37:56.101Z,38.47
2019-01-10T07:40:27.694Z,35.60
2019-01-10T07:42:58.522Z,39.07
2019-01-10T07:45:29.999Z,39.10
2019-01-10T07:48:01.060Z,45.00
2019-01-10T07:50:39.167Z,44.00
2019-01-10T07:53:11.562Z,39.40
2019-01-10T07:55:43.189Z,34.13
2019-01-10T07:58:14.405Z,42.20
2019-01-10T08:00:45.260Z,32.73
2019-01-10T08:03:16.301Z,32.57
2019-01-10T08:05:47.029Z,33.87
2019-01-10T08:08:17.940Z,34.10
2019-01-10T08:10:48.772Z,31.87
2019-01-10T08:13:19.840Z,30.20
2019-01-10T08:15:50.764Z,31.87
2019-01-10T08:18:21.294Z,32.30
2019-01-10T08:20:51.978Z,32.20
2019-01-10T08:23:22.983Z,33.97
2019-01-10T08:25:54.377Z,32.00
2019-01-10T08:28:24.710Z,31.27
2019-01-10T08:30:55.693Z,30.17
2019-01-10T08:33:26.092Z,30.53
2019-01-10T08:36:20.136Z,33.03
2019-01-10T08:38:50.124Z,32.87
2019-01-10T08:41:20.680Z,31.90
2019-01-10T08:43:51.389Z,28.33
2019-01-10T08:46:22.532Z,28.27
2019-01-10T08:48:53.354Z,31.07
2019-01-10T08:51:24.393Z,36.00
2019-01-10T08:53:55.030Z,30.20
2019-01-10T08:56:26.049Z,32.57
2019-01-10T08:58:56.845Z,32.17
2019-01-10T09:01:27.513Z,31.17
2019-01-10T09:03:59.424Z,30.30
2019-01-10T09:06:29.594Z,30.20
2019-01-10T09:09:01.161Z,27.20
2019-01-10T09:11:32.389Z,28.23
2019-01-10T09:14:04.789Z,28.60
2019-01-10T09:16:35.785Z,26.23
2019-01-10T09:19:06.635Z,26.17
2019-01-10T09:21:37.821Z,23.87
2019-01-10T09:24:08.177Z,24.20
2019-01-10T09:26:38.572Z,26.03
2019-01-10T09:29:08.961Z,24.60
2019-01-10T09:31:41.690Z,24.33
2019-01-10T09:34:12.372Z,24.90
2019-01-10T09:36:42.923Z,23.50
2019-01-10T09:39:14.056Z,25.03
2019-01-10T09:41:44.585Z,25.73
2019-01-10T09:44:15.153Z,24.80
2019-01-10T09:46:46.695Z,25.03
2019-01-10T09:49:17.498Z,24.80
2019-01-10T09:51:48.308Z,26.07
2019-01-10T09:54:19.016Z,26.43
2019-01-10T09:56:49.735Z,24.07
2019-01-10T09:59:20.426Z,25.67
2019-01-10T10:01:51.813Z,26.10
2019-01-10T10:04:23.196Z,28.07
2019-01-10T10:06:54.562Z,26.53
2019-01-10T10:09:32.826Z,27.20
2019-01-10T10:12:07.306Z,25.67
2019-01-10T10:14:42.643Z,27.37
2019-01-10T10:17:15.538Z,27.57
2019-01-10T10:19:46.057Z,26.23
2019-01-10T10:22:16.797Z,27.93
2019-01-10T10:24:49.422Z,24.67
2019-01-10T10:27:20.441Z,25.57
2019-01-10T10:29:51.361Z,24.70
2019-01-10T10:32:22.155Z,26.30
2019-01-10T10:34:52.674Z,27.40
2019-01-10T10:37:24.346Z,28.97
2019-01-10T10:39:54.788Z,32.30
2019-01-10T10:42:25.936Z,30.40
2019-01-10T10:44:56.548Z,30.43
2019-01-10T10:47:31.094Z,33.00
2019-01-10T10:50:02.136Z,39.20
2019-01-10T10:52:33.093Z,35.87
2019-01-10T10:55:03.893Z,37.67
2019-01-10T10:57:34.854Z,33.90
2019-01-10T11:00:06.861Z,34.33
2019-01-10T11:02:37.622Z,31.50
2019-01-10T11:05:09.252Z,29.17
2019-01-10T11:07:40.033Z,30.27
2019-01-10T11:10:12.632Z,35.70
2019-01-10T11:12:43.630Z,33.07
2019-01-10T11:15:14.679Z,32.50
2019-01-10T11:17:45.740Z,29.73
2019-01-10T11:20:19.115Z,32.47
2019-01-10T11:22:51.578Z,34.30
2019-01-10T11:25:24.686Z,34.33
2019-01-10T11:27:55.466Z,37.43
2019-01-10T11:30:29.153Z,32.00
2019-01-10T11:33:00.252Z,32.97
2019-01-10T11:35:31.232Z,33.43
2019-01-10T11:38:02.043Z,34.63
2019-01-10T11:40:33.122Z,35.27
2019-01-10T11:43:03.760Z,37.60
2019-01-10T11:45:34.789Z,31.70
2019-01-10T11:48:05.489Z,36.53
2019-01-10T11:50:37.016Z,37.50
2019-01-10T11:53:07.703Z,36.10
2019-01-10T11:55:38.375Z,32.67
2019-01-10T11:58:09.839Z,31.77
2019-01-10T12:00:40.754Z,31.03
2019-01-10T12:03:11.589Z,29.43
2019-01-10T12:05:48.304Z,30.77
2019-01-10T12:08:18.101Z,30.03
2019-01-10T12:10:50.488Z,31.80
2019-01-10T12:13:21.221Z,32.90
2019-01-10T12:15:52.496Z,34.83
2019-01-10T12:18:23.817Z,33.27
2019-01-10T12:20:54.119Z,33.80
2019-01-10T12:23:24.898Z,35.83
2019-01-10T12:25:56.305Z,34.40
2019-01-10T12:28:27.250Z,35.20
2019-01-10T12:30:57.767Z,29.43
2019-01-10T12:33:30.112Z,29.57
2019-01-10T12:36:03.164Z,30.97
2019-01-10T12:38:36.226Z,30.70
2019-01-10T12:41:09.148Z,29.13
2019-01-10T12:43:40.712Z,29.97
2019-01-10T12:46:13.638Z,28.73
2019-01-10T12:48:47.106Z,28.13
2019-01-10T12:51:20.799Z,29.50
2019-01-10T12:53:53.580Z,27.67
2019-01-10T12:56:26.275Z,26.50
2019-01-10T12:58:58.085Z,25.73
2019-01-10T13:01:30.481Z,26.90
2019-01-10T13:04:03.679Z,25.70
2019-01-10T13:06:34.984Z,28.00
2019-01-10T13:09:10.199Z,25.77
2019-01-10T13:11:42.838Z,22.07
2019-01-10T13:14:15.482Z,23.97
2019-01-10T13:16:47.511Z,25.50
2019-01-10T13:19:20.033Z,23.67
2019-01-10T13:21:52.320Z,22.47
2019-01-10T13:24:24.954Z,21.67
2019-01-10T13:26:57.768Z,24.00
2019-01-10T13:29:29.671Z,21.83
2019-01-10T13:32:02.977Z,28.27
2019-01-10T13:34:36.305Z,27.40
2019-01-10T13:37:08.319Z,25.20
2019-01-10T13:39:40.592Z,21.17
2019-01-10T13:42:12.874Z,21.50
2019-01-10T13:44:45.480Z,23.77
2019-01-10T13:47:17.202Z,19.50
2019-01-10T13:49:49.959Z,19.10
2019-01-10T13:52:21.839Z,20.70
2019-01-10T13:54:54.557Z,20.47
2019-01-10T13:57:28.173Z,19.47
2019-01-10T14:00:01.885Z,21.27
2019-01-10T14:02:34.167Z,21.00
2019-01-10T14:05:10.573Z,20.63
2019-01-10T14:07:41.153Z,21.33
2019-01-10T14:10:13.867Z,20.30
2019-01-10T14:12:46.648Z,22.73
2019-01-10T14:15:28.209Z,20.50
2019-01-10T14:18:02.066Z,22.13
2019-01-10T14:20:34.850Z,20.87
2019-01-10T14:23:07.303Z,21.20
2019-01-10T14:25:40.128Z,21.93
2019-01-10T14:28:12.498Z,22.40
2019-01-10T14:30:44.402Z,20.67
2019-01-10T14:33:16.650Z,21.53
2019-01-10T14:35:49.710Z,22.03
2019-01-10T14:38:27.406Z,24.43
2019-01-10T14:41:04.515Z,20.00
2019-01-10T14:43:37.486Z,21.20
2019-01-10T14:46:10.640Z,19.67
2019-01-10T14:48:42.607Z,20.50
2019-01-10T14:51:14.454Z,20.33
2019-01-10T14:53:48.057Z,19.90
2019-01-10T14:56:20.673Z,21.60
2019-01-10T14:58:52.881Z,22.27
2019-01-10T15:01:24.927Z,20.87
2019-01-10T15:03:57.642Z,21.10
2019-01-10T15:06:29.178Z,22.37
2019-01-10T15:09:01.751Z,32.37
2019-01-10T15:11:35.471Z,33.47
2019-01-10T15:14:08.632Z,27.73
2019-01-10T15:16:41.481Z,30.07
2019-01-10T15:19:13.630Z,24.57
2019-01-10T15:21:45.836Z,22.47
2019-01-10T15:24:19.163Z,19.60
2019-01-10T15:26:51.300Z,10.83
2019-01-10T15:29:23.591Z,8.77
2019-01-10T15:31:55.889Z,10.33
2019-01-10T15:34:28.090Z,8.90
2019-01-10T15:37:00.835Z,9.67
2019-01-10T15:39:32.957Z,11.90
2019-01-10T15:42:05.222Z,12.53
2019-01-10T15:44:38.284Z,24.13
2019-01-10T15:47:11.238Z,40.90
2019-01-10T15:49:43.081Z,33.10
2019-01-10T15:52:15.564Z,13.30
2019-01-10T15:54:49.124Z,15.70
2019-01-10T15:57:22.349Z,16.30
2019-01-10T15:59:55.711Z,18.10
2019-01-10T16:02:29.441Z,13.90
2019-01-10T16:05:03.238Z,13.57
2019-01-10T16:07:36.999Z,14.33
2019-01-10T16:10:11.396Z,11.70
2019-01-10T16:12:44.592Z,14.13
2019-01-10T16:15:21.991Z,15.10
2019-01-10T16:17:56.551Z,15.17
2019-01-10T16:20:29.869Z,16.07
2019-01-10T16:23:03.129Z,16.10
2019-01-10T16:25:36.870Z,17.23
2019-01-10T16:28:10.632Z,19.47
2019-01-10T16:30:44.988Z,19.47
2019-01-10T16:33:18.367Z,20.17
2019-01-10T16:35:52.520Z,25.10
2019-01-10T16:38:26.467Z,22.70
2019-01-10T16:41:01.119Z,21.60
2019-01-10T16:43:33.959Z,22.57
2019-01-10T16:46:09.842Z,24.60
2019-01-10T16:48:43.605Z,24.17
2019-01-10T16:51:16.289Z,23.97
2019-01-10T16:53:50.234Z,24.67
2019-01-10T16:56:23.751Z,26.50
2019-01-10T16:58:57.133Z,26.20
2019-01-10T17:01:30.888Z,23.37
2019-01-10T17:04:04.963Z,25.23
2019-01-10T17:06:38.354Z,23.80
2019-01-10T17:09:17.575Z,25.60
2019-01-10T17:11:48.519Z,25.07
2019-01-10T17:14:21.880Z,30.33
2019-01-10T17:16:55.005Z,31.27
2019-01-10T17:19:28.414Z,30.33
2019-01-10T17:22:02.914Z,34.40
2019-01-10T17:24:36.248Z,34.27
2019-01-10T17:27:09.908Z,26.70
2019-01-10T17:29:44.400Z,30.87
2019-01-10T17:32:17.575Z,40.20
2019-01-10T17:34:53.367Z,35.87
2019-01-10T17:37:26.551Z,29.53
2019-01-10T17:40:01.617Z,26.10
2019-01-10T17:42:35.161Z,25.67
2019-01-10T17:45:13.805Z,25.20
2019-01-10T17:47:46.362Z,25.00
2019-01-10T17:50:21.150Z,25.67
2019-01-10T17:52:55.729Z,22.30
2019-01-10T17:55:29.768Z,23.80
2019-01-10T17:58:05.437Z,21.23
2019-01-10T18:00:39.281Z,18.23
2019-01-10T18:03:12.767Z,20.13
2019-01-10T18:05:46.341Z,19.37
2019-01-10T18:08:20.727Z,17.27
2019-01-10T18:10:54.227Z,18.03
2019-01-10T18:13:27.595Z,24.40
2019-01-10T18:16:03.390Z,20.87
2019-01-10T18:18:37.688Z,19.40
2019-01-10T18:21:14.961Z,20.60
2019-01-10T18:23:46.110Z,18.00
2019-01-10T18:26:20.717Z,18.53
2019-01-10T18:28:53.884Z,20.13
2019-01-10T18:31:27.992Z,20.90
2019-01-10T18:34:01.947Z,18.63
2019-01-10T18:36:37.076Z,20.43
2019-01-10T18:39:13.109Z,21.57
2019-01-10T18:41:48.206Z,19.20
2019-01-10T18:44:22.631Z,20.30
2019-01-10T18:46:57.151Z,22.00
2019-01-10T18:49:31.685Z,36.20
2019-01-10T18:52:05.296Z,28.23
2019-01-10T18:54:39.313Z,26.23
2019-01-10T18:57:12.510Z,17.20
2019-01-10T18:59:46.526Z,17.97
2019-01-10T19:02:20.261Z,17.87
2019-01-10T19:04:53.757Z,21.67
2019-01-10T19:07:29.106Z,18.23
2019-01-10T19:10:03.689Z,20.90
2019-01-10T19:12:42.715Z,18.50
2019-01-10T19:15:16.991Z,16.37
2019-01-10T19:17:52.229Z,17.50
2019-01-10T19:20:31.385Z,17.23
2019-01-10T19:23:06.633Z,17.20
2019-01-10T19:25:39.702Z,17.80
2019-01-10T19:28:14.466Z,20.70
2019-01-10T19:30:49.160Z,21.27
2019-01-10T19:33:25.283Z,18.40
2019-01-10T19:35:58.871Z,17.80
2019-01-10T19:38:33.509Z,19.40
2019-01-10T19:41:09.244Z,20.00
2019-01-10T19:43:42.805Z,19.13
2019-01-10T19:46:16.908Z,19.43
2019-01-10T19:48:50.109Z,19.10
2019-01-10T19:51:24.635Z,21.17
2019-01-10T19:53:56.656Z,17.60
2019-01-10T19:56:29.321Z,18.00
2019-01-10T19:59:03.318Z,20.17
2019-01-10T20:01:37.722Z,19.80
2019-01-10T20:04:10.113Z,18.33
2019-01-10T20:06:45.068Z,21.67
2019-01-10T20:09:19.838Z,22.47
2019-01-10T20:11:54.112Z,23.53
2019-01-10T20:14:28.454Z,22.53
2019-01-10T20:17:02.283Z,22.23
2019-01-10T20:19:35.545Z,23.90
2019-01-10T20:22:10.213Z,26.93
2019-01-10T20:24:44.428Z,22.50
2019-01-10T20:27:18.665Z,26.27
2019-01-10T20:29:54.645Z,24.20
2019-01-10T20:32:29.966Z,25.60
2019-01-10T20:35:03.125Z,22.17
2019-01-10T20:37:36.886Z,21.60
2019-01-10T20:40:12.193Z,20.30
2019-01-10T20:42:45.823Z,21.63
2019-01-10T20:45:21.069Z,20.03
2019-01-10T20:47:55.414Z,21.00
2019-01-10T20:50:28.672Z,20.33
2019-01-10T20:53:02.365Z,21.53
2019-01-10T20:55:36.606Z,19.93
2019-01-10T20:58:13.228Z,18.93
2019-01-10T21:00:47.173Z,19.60
2019-01-10T21:03:21.487Z,19.57
2019-01-10T21:05:55.101Z,21.00
2019-01-10T21:08:28.625Z,21.63
2019-01-10T21:11:04.237Z,20.93
2019-01-10T21:13:38.811Z,21.87
2019-01-10T21:16:12.007Z,18.60
2019-01-10T21:18:46.629Z,19.07
2019-01-10T21:21:19.557Z,20.53
2019-01-10T21:23:53.193Z,21.27
2019-01-10T21:26:29.588Z,20.57
2019-01-10T21:29:03.158Z,18.70
2019-01-10T21:31:37.007Z,21.57
2019-01-10T21:34:10.605Z,22.80
2019-01-10T21:36:43.885Z,24.87
2019-01-10T21:39:17.705Z,24.40
2019-01-10T21:41:51.956Z,21.90
2019-01-10T21:44:24.250Z,24.70
2019-01-10T21:46:57.063Z,22.20
2019-01-10T21:49:29.653Z,23.80
2019-01-10T21:52:01.482Z,24.00
2019-01-10T21:54:34.995Z,21.07
2019-01-10T21:57:06.791Z,22.63
2019-01-10T21:59:38.103Z,24.07
2019-01-10T22:02:09.328Z,21.77
2019-01-10T22:04:40.145Z,21.47
2019-01-10T22:07:11.819Z,22.83
2019-01-10T22:09:43.032Z,22.10
2019-01-10T22:12:14.091Z,19.83
2019-01-10T22:14:45.366Z,19.40
2019-01-10T22:17:16.547Z,19.73
2019-01-10T22:19:47.634Z,20.57
2019-01-10T22:22:19.551Z,18.13
2019-01-10T22:24:50.160Z,20.15
2019-01-10T22:27:20.943Z,17.57
2019-01-10T22:29:51.746Z,18.57
2019-01-10T22:32:22.245Z,18.30
2019-01-10T22:34:53.183Z,19.70
2019-01-10T22:37:28.963Z,18.03
2019-01-10T22:39:57.125Z,18.87
2019-01-10T22:42:27.902Z,19.00
2019-01-10T22:44:58.806Z,19.77
2019-01-10T22:47:29.945Z,20.60
2019-01-10T22:50:03.532Z,20.83
2019-01-10T22:52:34.590Z,18.30
2019-01-10T22:55:06.148Z,19.77
2019-01-10T22:57:37.898Z,16.83
2019-01-10T23:00:27.963Z,19.50
2019-01-10T23:03:08.453Z,23.63
2019-01-10T23:05:44.224Z,20.70
2019-01-10T23:08:14.861Z,21.37
2019-01-10T23:10:45.506Z,23.73
2019-01-10T23:13:16.623Z,23.10
2019-01-10T23:15:48.298Z,22.13
2019-01-10T23:18:19.154Z,23.40
2019-01-10T23:20:57.635Z,21.73
2019-01-10T23:23:29.432Z,22.77
2019-01-10T23:26:00.511Z,24.20
2019-01-10T23:28:31.288Z,20.83
2019-01-10T23:31:02.822Z,20.93
2019-01-10T23:33:33.339Z,24.67
2019-01-10T23:36:05.273Z,22.57
2019-01-10T23:38:36.612Z,20.50
2019-01-10T23:41:07.966Z,20.03
2019-01-10T23:43:40.192Z,20.67
2019-01-10T23:46:10.637Z,23.07
2019-01-10T23:48:41.265Z,21.03
2019-01-10T23:51:12.033Z,20.50
2019-01-10T23:53:43.994Z,21.40
2019-01-10T23:56:14.573Z,20.13
2019-01-10T23:58:45.263Z,21.70
